createdAt,value
2023-05-05T00:01:33.118Z,9.80
2023-05-05T00:04:00.245Z,4.70
2023-05-05T00:06:28.572Z,4.40
2023-05-05T00:08:56.106Z,5.83
2023-05-05T00:11:23.510Z,5.27
2023-05-05T00:13:50.630Z,5.73
2023-05-05T00:16:17.552Z,4.53
2023-05-05T00:18:44.728Z,4.47
2023-05-05T00:21:11.642Z,7.67
2023-05-05T00:23:38.602Z,5.40
2023-05-05T00:26:05.707Z,4.20
2023-05-05T00:28:32.641Z,7.67
2023-05-05T00:30:59.696Z,5.33
2023-05-05T00:33:26.683Z,6.03
2023-05-05T00:35:53.594Z,4.30
2023-05-05T00:38:20.571Z,4.33
2023-05-05T00:40:47.485Z,5.37
2023-05-05T00:43:14.452Z,5.03
2023-05-05T00:45:44.142Z,4.57
2023-05-05T00:48:11.582Z,6.73
2023-05-05T00:50:38.669Z,4.30
2023-05-05T00:53:06.759Z,5.43
2023-05-05T00:55:35.229Z,4.83
2023-05-05T00:58:03.227Z,5.50
2023-05-05T01:00:30.821Z,4.17
2023-05-05T01:02:58.872Z,4.03
2023-05-05T01:05:27.693Z,4.23
2023-05-05T01:08:12.625Z,4.60
2023-05-05T01:10:52.316Z,3.40
2023-05-05T01:13:40.586Z,3.40
2023-05-05T01:16:23.484Z,4.37
2023-05-05T01:19:19.710Z,4.90
2023-05-05T01:22:02.177Z,4.67
2023-05-05T01:24:54.956Z,4.70
2023-05-05T01:27:48.231Z,7.33
2023-05-05T01:30:20.462Z,4.93
2023-05-05T01:32:56.871Z,5.77
2023-05-05T01:35:37.972Z,5.53
2023-05-05T01:38:24.903Z,4.13
2023-05-05T01:40:59.845Z,5.60
2023-05-05T01:43:30.696Z,4.73
2023-05-05T01:46:00.563Z,5.10
2023-05-05T01:48:29.764Z,4.67
2023-05-05T01:50:57.954Z,4.33
2023-05-05T01:53:26.224Z,5.03
2023-05-05T01:55:54.865Z,4.93
2023-05-05T01:58:23.400Z,5.67
2023-05-05T02:00:51.562Z,4.43
2023-05-05T02:03:20.793Z,6.73
2023-05-05T02:05:49.117Z,4.10
2023-05-05T02:08:16.950Z,5.83
2023-05-05T02:10:45.035Z,5.57
2023-05-05T02:13:13.095Z,4.93
2023-05-05T02:15:40.993Z,5.00
2023-05-05T02:18:09.297Z,4.10
2023-05-05T02:20:38.495Z,6.40
2023-05-05T02:23:07.742Z,4.63
2023-05-05T02:25:43.669Z,5.23
2023-05-05T02:28:33.350Z,5.03
2023-05-05T02:31:01.062Z,7.37
2023-05-05T02:33:32.475Z,6.30
2023-05-05T02:36:06.631Z,8.13
2023-05-05T02:38:34.606Z,5.40
2023-05-05T02:41:02.727Z,3.60
2023-05-05T02:43:32.936Z,4.20
2023-05-05T02:45:59.880Z,4.20
2023-05-05T02:48:29.579Z,4.23
2023-05-05T02:50:57.093Z,4.70
2023-05-05T02:53:27.042Z,4.60
2023-05-05T02:56:01.744Z,9.13
2023-05-05T02:58:31.655Z,4.93
2023-05-05T03:01:03.924Z,4.70
2023-05-05T03:03:40.930Z,6.03
2023-05-05T03:06:14.935Z,5.10
2023-05-05T03:09:03.057Z,4.60
2023-05-05T03:11:36.887Z,5.40
2023-05-05T03:14:19.192Z,5.43
2023-05-05T03:16:47.622Z,4.80
2023-05-05T03:19:18.580Z,5.50
2023-05-05T03:21:45.836Z,5.77
2023-05-05T03:24:17.495Z,5.30
2023-05-05T03:26:46.214Z,4.63
2023-05-05T03:29:16.814Z,7.03
2023-05-05T03:31:43.738Z,7.47
2023-05-05T03:34:10.736Z,7.17
2023-05-05T03:36:38.686Z,5.90
2023-05-05T03:39:05.947Z,5.87
2023-05-05T03:41:33.177Z,5.53
2023-05-05T03:44:00.151Z,5.47
2023-05-05T03:46:27.284Z,6.90
2023-05-05T03:48:56.985Z,7.33
2023-05-05T03:51:26.505Z,5.70
2023-05-05T03:53:53.500Z,5.90
2023-05-05T03:56:20.468Z,7.93
2023-05-05T03:58:47.336Z,6.73
2023-05-05T04:01:14.255Z,7.60
2023-05-05T04:03:41.326Z,6.17
2023-05-05T04:06:08.293Z,6.50
2023-05-05T04:08:35.239Z,5.50
2023-05-05T04:11:02.701Z,6.47
2023-05-05T04:13:32.058Z,6.00
2023-05-05T04:15:59.796Z,6.00
2023-05-05T04:18:26.839Z,7.47
2023-05-05T04:20:53.725Z,5.30
2023-05-05T04:23:20.641Z,6.30
2023-05-05T04:25:47.831Z,7.43
2023-05-05T04:28:14.852Z,6.40
2023-05-05T04:30:41.769Z,6.70
2023-05-05T04:33:08.807Z,7.33
2023-05-05T04:35:35.765Z,6.20
2023-05-05T04:38:02.682Z,7.03
2023-05-05T04:40:29.948Z,5.47
2023-05-05T04:42:56.873Z,8.00
2023-05-05T04:45:23.774Z,8.30
2023-05-05T04:47:50.755Z,5.77
2023-05-05T04:50:17.805Z,6.13
2023-05-05T04:52:44.783Z,6.47
2023-05-05T04:55:11.757Z,5.90
2023-05-05T04:57:41.792Z,9.43
2023-05-05T05:00:09.607Z,6.70
2023-05-05T05:02:37.667Z,5.20
2023-05-05T05:05:05.105Z,5.77
2023-05-05T05:07:32.013Z,5.93
2023-05-05T05:09:59.176Z,5.60
2023-05-05T05:12:26.138Z,5.30
2023-05-05T05:14:53.101Z,5.43
2023-05-05T05:17:21.116Z,5.13
2023-05-05T05:19:48.041Z,6.80
2023-05-05T05:22:14.949Z,8.73
2023-05-05T05:24:41.919Z,4.97
2023-05-05T05:27:10.191Z,6.57
2023-05-05T05:29:37.339Z,8.27
2023-05-05T05:32:04.677Z,6.80
2023-05-05T05:34:31.875Z,6.77
2023-05-05T05:36:58.883Z,4.93
2023-05-05T05:39:25.829Z,5.20
2023-05-05T05:41:52.862Z,6.30
2023-05-05T05:44:19.940Z,6.20
2023-05-05T05:46:46.854Z,4.60
2023-05-05T08:33:38.124Z,5.65
2023-05-05T08:36:05.410Z,4.70
2023-05-05T08:38:32.408Z,3.72
2023-05-05T08:40:59.452Z,4.78
2023-05-05T08:43:26.442Z,3.95
2023-05-05T08:45:56.419Z,7.80
2023-05-05T08:48:28.303Z,7.55
2023-05-05T08:51:00.834Z,5.15
2023-05-05T08:53:56.295Z,6.60
2023-05-05T08:56:26.750Z,5.80
2023-05-05T08:58:55.165Z,5.18
2023-05-05T09:01:22.726Z,4.90
2023-05-05T09:03:50.203Z,6.03
2023-05-05T09:06:17.364Z,6.82
2023-05-05T09:08:44.566Z,3.97
2023-05-05T09:11:11.567Z,7.68
2023-05-05T09:13:38.616Z,5.83
2023-05-05T15:25:58.147Z,13.30
2023-05-05T15:28:25.166Z,15.05
2023-05-05T15:30:52.144Z,12.93
2023-05-05T15:33:19.061Z,11.85
2023-05-05T15:35:46.010Z,11.93
2023-05-05T15:38:12.945Z,14.93
2023-05-05T15:40:39.876Z,13.43
2023-05-05T15:43:06.887Z,14.13
2023-05-05T15:45:34.144Z,15.75
2023-05-05T15:48:01.346Z,16.57
2023-05-05T15:50:28.336Z,14.05
2023-05-05T15:52:56.880Z,14.90
2023-05-05T15:55:24.120Z,25.73
2023-05-05T15:57:51.165Z,15.50
2023-05-05T16:00:18.334Z,14.97
2023-05-05T16:02:45.454Z,14.70
2023-05-05T16:05:12.777Z,12.97
2023-05-05T16:07:39.733Z,14.57
2023-05-05T16:10:07.504Z,12.83
2023-05-05T16:12:34.578Z,13.50
2023-05-05T16:15:01.566Z,12.83
2023-05-05T16:17:28.580Z,14.33
2023-05-05T16:19:55.836Z,16.67
2023-05-05T16:22:22.786Z,13.40
2023-05-05T16:24:49.691Z,15.83
2023-05-05T16:27:16.891Z,13.23
2023-05-05T16:29:43.814Z,11.32
2023-05-05T16:32:11.010Z,12.27
2023-05-05T16:34:37.930Z,14.35
2023-05-05T16:37:05.078Z,14.90
2023-05-05T16:39:33.005Z,12.70
2023-05-05T16:41:59.945Z,14.20
2023-05-05T16:44:26.879Z,13.57
2023-05-05T16:46:53.813Z,15.30
2023-05-05T16:49:20.757Z,17.73
2023-05-05T16:51:47.727Z,20.00
2023-05-05T16:54:14.674Z,14.97
2023-05-05T16:56:44.600Z,12.95
2023-05-05T16:59:12.050Z,14.83
2023-05-05T17:01:39.055Z,13.60
2023-05-05T17:04:06.044Z,13.50
2023-05-05T17:06:33.283Z,15.93
2023-05-05T17:09:01.407Z,13.23
2023-05-05T17:11:28.429Z,14.02
2023-05-05T17:13:55.379Z,13.20
2023-05-05T17:16:22.414Z,16.47
2023-05-05T17:18:49.347Z,17.40
2023-05-05T17:21:16.282Z,27.17
2023-05-05T17:23:43.244Z,21.27
2023-05-05T17:26:10.333Z,24.10
2023-05-05T17:28:37.431Z,18.03
2023-05-05T17:31:04.356Z,20.33
2023-05-05T17:33:31.404Z,20.57
2023-05-05T17:35:58.334Z,18.63
2023-05-05T17:38:25.345Z,19.43
2023-05-05T17:40:52.259Z,23.00
2023-05-05T17:43:19.260Z,18.63
2023-05-05T17:45:46.772Z,24.43
2023-05-05T17:48:13.847Z,20.17
2023-05-05T17:50:43.180Z,17.23
2023-05-05T17:53:10.920Z,18.63
2023-05-05T17:55:37.880Z,15.97
2023-05-05T17:58:04.847Z,22.27
2023-05-05T18:00:31.775Z,29.87
2023-05-05T18:03:00.735Z,23.63
2023-05-05T18:05:27.719Z,23.53
2023-05-05T18:07:54.678Z,20.73
2023-05-05T18:10:21.592Z,24.30
2023-05-05T18:12:48.557Z,31.37
2023-05-05T18:15:15.558Z,21.57
2023-05-05T18:17:42.494Z,18.77
2023-05-05T18:20:10.153Z,13.70
2023-05-05T18:22:37.161Z,19.50
2023-05-05T18:25:05.922Z,18.67
2023-05-05T18:27:35.871Z,26.23
2023-05-05T18:30:10.744Z,23.77
2023-05-05T18:32:38.192Z,22.80
2023-05-05T18:35:06.219Z,15.90
2023-05-05T18:37:33.668Z,15.67
2023-05-05T18:40:00.612Z,22.43
2023-05-05T18:42:27.536Z,23.70
2023-05-05T18:44:54.437Z,19.20
2023-05-05T18:47:21.845Z,16.37
2023-05-05T18:49:49.676Z,15.97
2023-05-05T18:52:17.033Z,17.17
2023-05-05T18:54:44.091Z,23.37
2023-05-05T18:57:11.006Z,20.23
2023-05-05T18:59:37.896Z,28.43
2023-05-05T19:02:04.951Z,23.33
2023-05-05T19:04:32.705Z,19.27
2023-05-05T19:07:00.040Z,25.47
2023-05-05T19:09:27.589Z,20.27
2023-05-05T19:11:54.495Z,23.57
2023-05-05T19:14:22.395Z,27.97
2023-05-05T19:16:49.426Z,23.20
2023-05-05T19:19:16.965Z,35.97
2023-05-05T19:21:43.969Z,23.27
2023-05-05T19:24:11.588Z,22.87
2023-05-05T19:26:38.537Z,26.10
2023-05-05T19:29:05.753Z,26.67
2023-05-05T19:31:32.722Z,27.20
2023-05-05T19:34:01.786Z,23.97
2023-05-05T19:36:31.663Z,24.63
2023-05-05T19:39:01.663Z,25.07
2023-05-05T19:41:30.458Z,29.90
2023-05-05T19:43:57.548Z,25.33
2023-05-05T19:46:27.136Z,25.50
2023-05-05T19:48:54.094Z,26.57
2023-05-05T19:51:21.255Z,23.47
2023-05-05T19:53:48.293Z,22.17
2023-05-05T19:56:15.320Z,25.27
2023-05-05T19:58:55.779Z,17.57
2023-05-05T20:01:23.416Z,20.37
2023-05-05T20:03:51.291Z,22.67
2023-05-05T20:06:18.292Z,18.13
2023-05-05T20:08:45.265Z,15.93
2023-05-05T20:11:13.729Z,25.70
2023-05-05T20:13:40.665Z,17.50
2023-05-05T20:16:08.908Z,23.10
2023-05-05T20:18:36.002Z,22.07
2023-05-05T20:21:03.191Z,22.37
2023-05-05T20:23:30.527Z,23.87
2023-05-05T20:25:58.191Z,20.10
2023-05-05T20:28:25.430Z,22.13
2023-05-05T20:30:52.493Z,47.40
2023-05-05T20:33:19.698Z,38.73
2023-05-05T20:35:46.987Z,34.27
2023-05-05T20:38:14.000Z,28.73
2023-05-05T20:40:41.872Z,23.83
2023-05-05T20:43:08.830Z,21.13
2023-05-05T20:45:37.068Z,22.40
2023-05-05T20:48:05.563Z,30.00
2023-05-05T20:50:32.815Z,26.03
2023-05-05T20:52:59.779Z,20.97
2023-05-05T20:55:26.823Z,24.87
2023-05-05T20:57:53.910Z,23.00
2023-05-05T21:00:20.984Z,26.17
2023-05-05T21:02:48.097Z,21.00
2023-05-05T21:05:15.319Z,20.43
2023-05-05T21:07:42.289Z,25.23
2023-05-05T21:10:09.943Z,22.57
2023-05-05T21:12:37.328Z,17.73
2023-05-05T21:15:04.671Z,22.70
2023-05-05T21:17:31.625Z,22.63
2023-05-05T21:19:58.580Z,22.27
2023-05-05T21:22:25.687Z,23.30
2023-05-05T21:24:52.689Z,22.33
2023-05-05T21:27:20.838Z,22.30
2023-05-05T21:29:50.386Z,26.90
2023-05-05T21:32:17.434Z,23.70
2023-05-05T21:34:44.400Z,23.20
2023-05-05T21:37:12.081Z,22.23
2023-05-05T21:39:39.065Z,20.77
2023-05-05T21:42:06.053Z,13.87
2023-05-05T21:44:35.132Z,13.43
2023-05-05T21:47:02.067Z,10.13
2023-05-05T21:49:29.019Z,11.00
2023-05-05T21:51:56.244Z,12.23
2023-05-05T21:54:23.231Z,11.27
2023-05-05T21:56:50.254Z,8.47
2023-05-05T21:59:17.478Z,9.53
2023-05-05T22:01:44.523Z,9.07
2023-05-05T22:04:11.473Z,8.23
2023-05-05T22:06:38.640Z,9.07
2023-05-05T22:09:05.557Z,9.50
2023-05-05T22:11:32.476Z,9.40
2023-05-05T22:13:59.407Z,14.70
2023-05-05T22:16:26.392Z,8.07
2023-05-05T22:18:53.332Z,9.87
2023-05-05T22:21:21.400Z,10.13
2023-05-05T22:23:48.332Z,11.53
2023-05-05T22:26:15.293Z,9.83
2023-05-05T22:28:42.276Z,12.07
2023-05-05T22:31:09.239Z,9.23
2023-05-05T22:33:36.281Z,9.50
2023-05-05T22:36:03.318Z,11.37
2023-05-05T22:38:30.216Z,13.60
2023-05-05T22:40:57.256Z,11.03
2023-05-05T22:43:24.189Z,12.07
2023-05-05T22:45:51.288Z,8.57
2023-05-05T22:48:18.186Z,10.70
2023-05-05T22:50:45.618Z,9.23
2023-05-05T22:53:12.531Z,8.80
2023-05-05T22:55:39.469Z,7.47
2023-05-05T22:58:06.495Z,9.73
2023-05-05T23:00:33.704Z,8.17
2023-05-05T23:03:00.797Z,7.83
2023-05-05T23:05:27.802Z,9.80
2023-05-05T23:07:54.710Z,9.23
2023-05-05T23:10:21.622Z,7.50
2023-05-05T23:12:48.546Z,7.93
2023-05-05T23:15:15.664Z,9.43
2023-05-05T23:17:42.639Z,13.60
2023-05-05T23:20:11.960Z,15.67
2023-05-05T23:22:39.044Z,7.30
2023-05-05T23:25:06.392Z,11.50
2023-05-05T23:27:33.396Z,15.20
2023-05-05T23:30:00.591Z,12.13
2023-05-05T23:32:27.509Z,11.13
2023-05-05T23:34:54.431Z,8.10
2023-05-05T23:37:21.358Z,11.63
2023-05-05T23:39:48.268Z,9.50
2023-05-05T23:42:15.215Z,10.27
2023-05-05T23:44:42.138Z,11.97
2023-05-05T23:47:09.359Z,12.87
2023-05-05T23:49:36.788Z,9.73
2023-05-05T23:52:03.781Z,11.30
2023-05-05T23:54:30.693Z,9.17
2023-05-05T23:56:58.604Z,9.37
2023-05-05T23:59:26.189Z,7.03
